createdAt,value
2019-05-05T00:00:15.134Z,11.30
2019-05-05T00:03:14.750Z,11.73
2019-05-05T00:06:10.037Z,14.28
2019-05-05T00:08:55.546Z,12.40
2019-05-05T00:12:20.988Z,13.40
2019-05-05T00:15:31.390Z,10.15
2019-05-05T00:18:30.337Z,12.40
2019-05-05T00:21:29.781Z,13.28
2019-05-05T00:24:04.618Z,16.25
2019-05-05T00:34:09.818Z,15.90
2019-05-05T00:36:55.134Z,12.13
2019-05-05T00:39:47.257Z,15.78
2019-05-05T00:42:40.395Z,16.25
2019-05-05T00:45:26.228Z,13.28
2019-05-05T00:48:55.197Z,15.65
2019-05-05T00:51:29.168Z,13.78
2019-05-05T00:54:24.276Z,10.95
2019-05-05T00:57:17.774Z,15.53
2019-05-05T01:00:24.456Z,13.22
2019-05-05T01:03:11.935Z,14.05
2019-05-05T01:06:01.263Z,15.03
2019-05-05T01:12:31.717Z,17.20
2019-05-05T01:15:12.568Z,17.50
2019-05-05T01:17:55.354Z,12.00
2019-05-05T01:20:44.804Z,14.75
2019-05-05T01:23:28.652Z,19.17
2019-05-05T01:26:14.433Z,16.02
2019-05-05T01:29:02.908Z,15.70
2019-05-05T01:32:01.115Z,18.57
2019-05-05T01:34:44.248Z,18.65
2019-05-05T01:37:35.641Z,18.70
2019-05-05T01:40:38.291Z,13.28
2019-05-05T01:43:22.619Z,15.78
2019-05-05T01:46:05.100Z,17.40
2019-05-05T01:48:44.642Z,14.28
2019-05-05T01:51:39.981Z,14.30
2019-05-05T01:54:32.209Z,15.40
2019-05-05T01:57:10.100Z,19.30
2019-05-05T01:59:49.025Z,14.93
2019-05-05T02:02:27.483Z,22.05
2019-05-05T02:05:05.115Z,15.83
2019-05-05T02:08:57.689Z,17.60
2019-05-05T02:11:41.042Z,18.70
2019-05-05T02:14:18.257Z,19.95
2019-05-05T02:17:06.553Z,16.67
2019-05-05T02:19:55.265Z,21.48
2019-05-05T02:22:39.102Z,17.52
2019-05-05T02:25:22.589Z,14.38
2019-05-05T02:28:06.474Z,17.55
2019-05-05T02:33:25.889Z,21.10
2019-05-05T02:35:56.325Z,20.57
2019-05-05T02:38:28.313Z,17.82
2019-05-05T02:41:00.643Z,16.85
2019-05-05T02:43:34.430Z,17.67
2019-05-05T02:46:18.665Z,15.80
2019-05-05T02:48:55.166Z,21.42
2019-05-05T02:51:28.537Z,18.55
2019-05-05T02:54:04.441Z,24.77
2019-05-05T02:56:50.449Z,17.52
2019-05-05T02:59:43.507Z,18.15
2019-05-05T03:02:19.098Z,20.52
2019-05-05T03:04:53.663Z,15.43
2019-05-05T03:07:28.116Z,20.00
2019-05-05T03:10:03.593Z,15.83
2019-05-05T03:12:39.042Z,15.95
2019-05-05T03:15:14.343Z,18.20
2019-05-05T03:17:46.643Z,15.23
2019-05-05T03:20:18.935Z,15.48
2019-05-05T03:22:50.966Z,13.62
2019-05-05T03:25:24.183Z,16.42
2019-05-05T03:27:56.353Z,13.98
2019-05-05T03:30:28.498Z,18.52
2019-05-05T03:33:00.572Z,16.45
2019-05-05T03:35:34.561Z,14.25
2019-05-05T03:38:06.731Z,14.35
2019-05-05T03:40:40.612Z,16.25
2019-05-05T03:43:19.150Z,17.25
2019-05-05T03:46:00.043Z,23.75
2019-05-05T03:48:32.123Z,16.02
2019-05-05T03:51:17.409Z,20.70
2019-05-05T03:53:38.177Z,18.25
2019-05-05T03:56:10.154Z,22.00
2019-05-05T03:58:43.703Z,22.75
2019-05-05T04:01:37.558Z,24.45
2019-05-05T04:04:26.894Z,24.37
2019-05-05T04:06:58.988Z,20.97
2019-05-05T04:09:31.288Z,19.52
2019-05-05T04:12:04.445Z,20.97
2019-05-05T04:14:36.578Z,24.65
2019-05-05T04:17:27.560Z,22.02
2019-05-05T04:20:03.687Z,22.90
2019-05-05T04:22:35.500Z,20.70
2019-05-05T04:25:07.640Z,23.12
2019-05-05T04:27:39.606Z,22.35
2019-05-05T04:30:14.114Z,22.60
2019-05-05T04:32:45.910Z,27.25
2019-05-05T04:35:17.907Z,22.65
2019-05-05T04:37:50.149Z,20.95
2019-05-05T04:40:24.025Z,23.00
2019-05-05T04:42:56.031Z,23.75
2019-05-05T04:45:28.065Z,24.75
2019-05-05T04:48:13.630Z,25.17
2019-05-05T04:50:57.653Z,22.13
2019-05-05T04:53:38.833Z,24.27
2019-05-05T04:56:10.938Z,23.05
2019-05-05T04:58:43.988Z,20.65
2019-05-05T05:01:16.036Z,18.92
2019-05-05T05:03:56.218Z,25.20
2019-05-05T05:06:34.174Z,21.90
2019-05-05T05:09:07.165Z,20.48
2019-05-05T05:11:39.453Z,18.80
2019-05-05T05:14:11.630Z,20.75
2019-05-05T05:16:43.858Z,22.42
2019-05-05T05:19:15.895Z,18.57
2019-05-05T05:22:00.880Z,22.55
2019-05-05T05:24:23.666Z,19.35
2019-05-05T05:26:55.805Z,17.70
2019-05-05T05:29:27.818Z,21.33
2019-05-05T05:32:00.768Z,18.17
2019-05-05T05:34:34.410Z,19.73
2019-05-05T05:37:06.457Z,23.57
2019-05-05T05:39:54.519Z,17.95
2019-05-05T05:42:26.740Z,21.00
2019-05-05T05:45:17.645Z,19.98
2019-05-05T05:48:06.997Z,19.30
2019-05-05T05:50:53.546Z,17.80
2019-05-05T05:53:25.112Z,19.67
2019-05-05T05:55:57.127Z,21.37
2019-05-05T05:58:30.173Z,17.30
2019-05-05T06:01:04.322Z,19.55
2019-05-05T06:03:36.406Z,18.45
2019-05-05T06:06:08.324Z,14.93
2019-05-05T06:08:40.635Z,14.55
2019-05-05T06:11:13.704Z,19.27
2019-05-05T06:13:47.581Z,16.70
2019-05-05T06:16:20.419Z,12.53
2019-05-05T06:18:54.156Z,15.03
2019-05-05T06:21:26.291Z,13.30
2019-05-05T06:23:58.421Z,21.45
2019-05-05T06:26:30.509Z,15.28
2019-05-05T06:29:04.341Z,16.40
2019-05-05T06:31:36.094Z,14.78
2019-05-05T06:34:08.218Z,22.73
2019-05-05T06:36:40.058Z,16.80
2019-05-05T06:39:13.662Z,17.40
2019-05-05T06:42:04.472Z,12.35
2019-05-05T06:44:44.256Z,14.00
2019-05-05T06:47:20.169Z,11.80
2019-05-05T06:49:54.000Z,9.58
2019-05-05T06:52:25.718Z,14.30
2019-05-05T06:54:58.690Z,10.15
2019-05-05T06:57:30.771Z,9.33
2019-05-05T07:00:03.688Z,12.00
2019-05-05T07:02:35.782Z,10.25
2019-05-05T07:05:07.952Z,8.83
2019-05-05T07:07:40.038Z,8.80
2019-05-05T07:10:14.086Z,10.75
2019-05-05T07:12:46.247Z,11.53
2019-05-05T07:15:18.349Z,11.33
2019-05-05T07:17:50.345Z,6.83
2019-05-05T07:20:24.100Z,12.95
2019-05-05T07:23:02.132Z,8.08
2019-05-05T07:25:42.167Z,10.80
2019-05-05T07:28:04.365Z,8.55
2019-05-05T07:30:37.343Z,11.63
2019-05-05T07:33:09.453Z,11.33
2019-05-05T07:35:59.447Z,8.55
2019-05-05T07:38:26.522Z,8.98
2019-05-05T07:40:58.968Z,8.38
2019-05-05T07:43:31.263Z,6.35
2019-05-05T07:46:04.469Z,7.70
2019-05-05T07:48:36.512Z,10.68
2019-05-05T07:51:08.488Z,8.00
2019-05-05T07:53:40.592Z,8.65
2019-05-05T07:56:14.492Z,8.00
2019-05-05T07:58:47.071Z,8.63
2019-05-05T08:01:19.092Z,7.50
2019-05-05T08:03:51.066Z,12.00
2019-05-05T08:06:23.695Z,6.42
2019-05-05T08:08:55.933Z,8.83
2019-05-05T08:11:28.279Z,7.85
2019-05-05T08:14:00.350Z,7.65
2019-05-05T08:16:44.180Z,11.65
2019-05-05T08:19:27.970Z,7.97
2019-05-05T08:22:00.104Z,13.32
2019-05-05T08:25:05.992Z,8.30
2019-05-05T08:27:49.431Z,5.30
2019-05-05T08:30:55.555Z,9.60
2019-05-05T08:33:27.839Z,8.40
2019-05-05T08:36:04.721Z,7.12
2019-05-05T08:38:37.132Z,5.37
2019-05-05T08:41:17.136Z,5.15
2019-05-05T08:43:54.274Z,7.20
2019-05-05T08:46:26.354Z,6.03
2019-05-05T08:48:58.345Z,8.65
2019-05-05T08:51:30.496Z,6.05
2019-05-05T08:54:03.925Z,6.25
2019-05-05T08:56:36.458Z,4.97
2019-05-05T08:59:08.530Z,6.28
2019-05-05T09:01:40.591Z,5.40
2019-05-05T09:04:11.496Z,9.98
2019-05-05T09:06:43.888Z,5.45
2019-05-05T09:09:16.126Z,5.80
2019-05-05T09:11:48.368Z,6.85
2019-05-05T09:14:21.140Z,5.25
2019-05-05T09:16:53.783Z,5.55
2019-05-05T09:19:25.795Z,6.70
2019-05-05T09:21:57.827Z,10.20
2019-05-05T09:24:38.259Z,6.40
2019-05-05T09:27:17.034Z,4.67
2019-05-05T09:29:49.004Z,6.67
2019-05-05T09:32:21.151Z,5.10
2019-05-05T09:34:54.082Z,6.37
2019-05-05T09:37:26.681Z,4.55
2019-05-05T09:39:58.719Z,7.55
2019-05-05T09:42:30.715Z,9.10
2019-05-05T09:45:04.788Z,6.50
2019-05-05T09:47:36.600Z,7.10
2019-05-05T09:50:09.021Z,8.78
2019-05-05T09:52:41.323Z,6.58
2019-05-05T09:55:13.912Z,5.97
2019-05-05T09:57:46.009Z,8.40
2019-05-05T10:00:17.986Z,6.53
2019-05-05T10:02:50.025Z,7.92
2019-05-05T10:05:23.616Z,4.42
2019-05-05T10:07:56.010Z,4.20
2019-05-05T10:10:28.131Z,5.62
2019-05-05T10:13:00.309Z,4.70
2019-05-05T10:15:32.431Z,6.87
2019-05-05T10:18:04.464Z,6.40
2019-05-05T10:20:36.582Z,7.12
2019-05-05T10:23:08.576Z,6.87
2019-05-05T10:25:45.080Z,9.30
2019-05-05T10:28:17.257Z,7.60
2019-05-05T10:30:49.534Z,4.92
2019-05-05T10:33:21.558Z,6.67
2019-05-05T10:35:54.214Z,6.25
2019-05-05T10:38:26.170Z,6.03
2019-05-05T10:40:58.272Z,3.35
2019-05-05T10:43:30.231Z,4.12
2019-05-05T10:46:03.863Z,8.58
2019-05-05T10:48:36.343Z,4.58
2019-05-05T10:51:08.455Z,4.28
2019-05-05T10:53:40.381Z,3.40
2019-05-05T10:56:13.742Z,6.30
2019-05-05T10:58:46.888Z,3.95
2019-05-05T11:01:18.963Z,3.00
2019-05-05T11:03:51.055Z,6.75
2019-05-05T11:06:23.035Z,4.53
2019-05-05T11:08:56.428Z,3.85
2019-05-05T11:11:28.547Z,5.10
2019-05-05T11:14:00.740Z,4.35
2019-05-05T11:16:32.877Z,4.95
2019-05-05T11:19:04.870Z,7.62
2019-05-05T11:21:37.030Z,7.15
2019-05-05T11:24:09.110Z,7.72
2019-05-05T11:26:41.182Z,4.80
2019-05-05T11:29:13.658Z,4.78
2019-05-05T11:31:45.926Z,6.58
2019-05-05T11:34:21.758Z,6.28
2019-05-05T11:37:11.770Z,5.95
2019-05-05T11:39:44.534Z,4.10
2019-05-05T11:42:16.525Z,3.60
2019-05-05T11:44:48.802Z,5.60
2019-05-05T11:47:20.871Z,9.45
2019-05-05T11:49:56.605Z,2.42
2019-05-05T11:52:27.863Z,4.62
2019-05-05T11:55:09.798Z,3.02
2019-05-05T11:57:34.599Z,3.17
2019-05-05T12:00:07.504Z,2.80
2019-05-05T12:02:39.897Z,2.40
2019-05-05T12:05:13.998Z,2.45
2019-05-05T12:07:45.730Z,2.08
2019-05-05T12:10:43.806Z,2.25
2019-05-05T12:13:15.226Z,3.10
2019-05-05T12:15:49.642Z,5.00
2019-05-05T12:18:23.210Z,2.50
2019-05-05T12:20:55.405Z,4.60
2019-05-05T12:23:28.783Z,4.92
2019-05-05T12:26:20.135Z,3.15
2019-05-05T12:29:13.993Z,3.58
2019-05-05T12:31:47.796Z,5.62
2019-05-05T12:34:20.244Z,2.80
2019-05-05T12:36:53.947Z,2.72
2019-05-05T12:39:26.234Z,4.65
2019-05-05T12:41:58.312Z,2.40
2019-05-05T12:44:38.971Z,6.97
2019-05-05T12:47:18.617Z,3.12
2019-05-05T12:49:50.752Z,4.10
2019-05-05T12:52:22.744Z,3.20
2019-05-05T12:54:54.855Z,4.12
2019-05-05T12:57:27.445Z,4.90
2019-05-05T13:00:00.361Z,2.70
2019-05-05T13:02:32.476Z,3.08
2019-05-05T13:05:05.090Z,4.58
2019-05-05T13:07:39.578Z,3.35
2019-05-05T13:10:14.971Z,2.50
2019-05-05T13:12:47.165Z,2.90
2019-05-05T13:15:19.378Z,2.50
2019-05-05T13:17:51.455Z,4.10
2019-05-05T13:20:44.370Z,4.50
2019-05-05T13:23:34.021Z,2.70
2019-05-05T13:26:16.344Z,5.30
2019-05-05T13:28:48.478Z,2.98
2019-05-05T13:31:21.864Z,3.25
2019-05-05T13:33:54.816Z,4.78
2019-05-05T13:36:27.046Z,2.87
2019-05-05T13:38:59.141Z,2.60
2019-05-05T13:41:31.251Z,3.12
2019-05-05T13:44:05.465Z,2.62
2019-05-05T13:46:37.913Z,2.75
2019-05-05T13:49:31.694Z,5.15
2019-05-05T13:52:04.866Z,2.45
2019-05-05T13:54:36.977Z,2.40
2019-05-05T13:57:09.152Z,3.27
2019-05-05T13:59:41.227Z,11.85
2019-05-05T14:02:13.762Z,2.45
2019-05-05T14:04:46.068Z,3.60
2019-05-05T14:07:18.173Z,2.62
2019-05-05T14:09:50.215Z,6.05
2019-05-05T14:12:24.044Z,2.77
2019-05-05T14:14:56.254Z,4.70
2019-05-05T14:17:28.433Z,1.70
2019-05-05T14:20:05.412Z,1.70
2019-05-05T14:22:34.550Z,6.65
2019-05-05T14:25:14.712Z,2.80
2019-05-05T14:27:46.778Z,3.15
2019-05-05T14:30:28.943Z,1.63
2019-05-05T14:33:01.134Z,4.10
2019-05-05T14:35:53.999Z,2.20
2019-05-05T14:38:34.746Z,2.30
2019-05-05T14:41:07.239Z,6.05
2019-05-05T14:43:40.472Z,5.67
2019-05-05T14:46:14.536Z,3.13
2019-05-05T14:48:46.641Z,2.00
2019-05-05T14:51:18.697Z,1.77
2019-05-05T14:53:50.813Z,4.05
2019-05-05T14:56:35.391Z,5.70
2019-05-05T14:58:56.950Z,2.12
2019-05-05T15:01:29.207Z,3.98
2019-05-05T15:04:01.428Z,2.62
2019-05-05T15:06:54.989Z,4.60
2019-05-05T15:09:38.536Z,3.30
2019-05-05T15:12:23.566Z,4.40
2019-05-05T15:14:55.189Z,2.27
2019-05-05T15:17:29.650Z,2.17
2019-05-05T15:20:03.787Z,2.50
2019-05-05T15:22:36.176Z,2.98
2019-05-05T15:25:08.262Z,2.50
2019-05-05T15:27:40.416Z,3.72
2019-05-05T15:30:12.655Z,3.12
2019-05-05T15:32:44.796Z,2.75
2019-05-05T15:35:16.796Z,3.00
2019-05-05T15:37:48.894Z,2.67
2019-05-05T15:40:22.007Z,2.30
2019-05-05T15:42:54.543Z,3.35
2019-05-05T15:45:26.519Z,4.92
2019-05-05T15:47:58.827Z,4.20
2019-05-05T15:50:30.844Z,4.65
2019-05-05T15:53:03.816Z,6.87
2019-05-05T15:55:36.559Z,3.85
2019-05-05T15:58:08.922Z,2.30
2019-05-05T16:00:41.283Z,3.87
2019-05-05T16:03:13.717Z,2.33
2019-05-05T16:05:46.176Z,3.07
2019-05-05T16:08:18.492Z,3.85
2019-05-05T16:10:50.941Z,3.30
2019-05-05T16:13:23.209Z,2.20
2019-05-05T16:16:14.558Z,3.10
2019-05-05T16:19:05.473Z,2.05
2019-05-05T16:21:38.818Z,3.60
2019-05-05T16:24:17.983Z,4.50
2019-05-05T16:26:50.032Z,3.20
2019-05-05T16:29:23.753Z,10.50
2019-05-05T16:31:55.826Z,2.87
2019-05-05T16:34:27.805Z,2.40
2019-05-05T16:36:59.889Z,2.58
2019-05-05T16:39:33.623Z,3.25
2019-05-05T16:42:05.856Z,3.10
2019-05-05T16:44:38.300Z,2.17
2019-05-05T16:47:10.343Z,2.25
2019-05-05T16:49:44.359Z,3.65
2019-05-05T16:52:23.956Z,2.20
2019-05-05T16:55:13.498Z,3.95
2019-05-05T16:57:45.547Z,2.50
2019-05-05T17:00:18.102Z,9.45
2019-05-05T17:02:50.146Z,2.40
2019-05-05T17:05:24.039Z,3.75
2019-05-05T17:07:58.447Z,5.10
2019-05-05T17:10:29.901Z,4.40
2019-05-05T17:13:08.921Z,2.35
2019-05-05T17:16:08.661Z,2.98
2019-05-05T17:18:49.142Z,3.22
2019-05-05T17:21:28.799Z,3.08
2019-05-05T17:24:00.989Z,2.83
2019-05-05T17:26:35.471Z,2.92
2019-05-05T17:29:07.777Z,2.95
2019-05-05T17:31:39.845Z,3.25
2019-05-05T17:34:13.762Z,2.22
2019-05-05T17:36:45.667Z,2.55
2019-05-05T17:39:18.528Z,2.50
2019-05-05T17:42:27.564Z,2.80
2019-05-05T17:45:14.112Z,2.58
2019-05-05T17:47:51.098Z,2.40
2019-05-05T17:50:44.030Z,2.87
2019-05-05T17:53:34.430Z,3.92
2019-05-05T17:56:07.880Z,3.22
2019-05-05T17:58:39.953Z,3.47
2019-05-05T18:01:11.899Z,4.60
2019-05-05T18:03:43.986Z,2.60
2019-05-05T18:06:34.397Z,2.85
2019-05-05T18:09:15.687Z,2.80
2019-05-05T18:12:06.637Z,3.15
2019-05-05T18:14:39.087Z,3.80
2019-05-05T18:17:11.166Z,2.98
2019-05-05T18:19:43.567Z,2.83
2019-05-05T18:22:15.863Z,4.47
2019-05-05T18:24:47.983Z,3.25
2019-05-05T18:27:19.915Z,5.50
2019-05-05T18:29:51.916Z,3.35
2019-05-05T18:32:24.050Z,2.50
2019-05-05T18:34:56.091Z,2.70
2019-05-05T18:37:28.158Z,7.92
2019-05-05T18:40:00.165Z,3.75
2019-05-05T18:42:33.993Z,2.55
2019-05-05T18:45:10.168Z,6.67
2019-05-05T18:47:43.380Z,5.40
2019-05-05T18:50:16.413Z,4.05
2019-05-05T18:52:48.575Z,4.65
2019-05-05T18:55:20.753Z,6.33
2019-05-05T18:57:54.141Z,5.50
2019-05-05T19:00:45.816Z,10.70
2019-05-05T19:03:24.471Z,5.22
2019-05-05T19:06:13.337Z,4.72
2019-05-05T19:08:54.274Z,5.53
2019-05-05T19:11:24.555Z,5.12
2019-05-05T19:13:56.644Z,4.37
2019-05-05T19:16:28.779Z,5.20
2019-05-05T19:19:00.929Z,4.25
2019-05-05T19:21:36.980Z,5.10
2019-05-05T19:24:09.152Z,7.53
2019-05-05T19:26:41.224Z,5.45
2019-05-05T19:29:13.634Z,4.33
2019-05-05T19:31:45.593Z,4.65
2019-05-05T19:34:17.743Z,5.85
2019-05-05T19:36:49.861Z,4.00
2019-05-05T19:39:24.158Z,5.80
2019-05-05T19:41:55.559Z,4.62
2019-05-05T19:44:27.627Z,2.92
2019-05-05T19:47:14.181Z,5.95
2019-05-05T19:49:52.447Z,3.77
2019-05-05T19:52:24.562Z,3.52
2019-05-05T19:54:56.451Z,3.72
2019-05-05T19:57:28.567Z,6.53
2019-05-05T20:00:00.589Z,3.98
2019-05-05T20:02:34.094Z,4.67
2019-05-05T20:05:06.380Z,3.92
2019-05-05T20:07:38.442Z,6.53
2019-05-05T20:10:10.710Z,5.33
2019-05-05T20:12:44.823Z,4.50
2019-05-05T20:15:23.364Z,7.67
2019-05-05T20:17:55.379Z,6.62
2019-05-05T20:20:27.536Z,5.65
2019-05-05T20:22:59.544Z,9.95
2019-05-05T20:25:31.515Z,7.58
2019-05-05T20:28:03.870Z,5.12
2019-05-05T20:30:36.044Z,6.10
2019-05-05T20:33:13.925Z,6.20
2019-05-05T20:35:49.403Z,4.42
2019-05-05T20:38:30.786Z,5.20
2019-05-05T20:41:16.210Z,6.25
2019-05-05T20:43:48.260Z,6.92
2019-05-05T20:46:20.339Z,5.80
2019-05-05T20:48:54.270Z,7.62
2019-05-05T20:51:26.141Z,4.80
2019-05-05T20:53:58.224Z,7.97
2019-05-05T20:56:30.191Z,5.75
2019-05-05T20:59:02.456Z,7.60
2019-05-05T21:01:34.532Z,5.28
2019-05-05T21:04:06.572Z,7.10
2019-05-05T21:06:38.563Z,4.72
2019-05-05T21:09:10.775Z,4.90
2019-05-05T21:11:43.776Z,6.17
2019-05-05T21:14:31.070Z,12.55
2019-05-05T21:16:54.538Z,5.28
2019-05-05T21:19:26.312Z,5.35
2019-05-05T21:22:00.077Z,7.40
2019-05-05T21:24:33.508Z,6.97
2019-05-05T21:27:06.878Z,5.65
2019-05-05T21:29:42.258Z,6.10
2019-05-05T21:32:13.822Z,6.37
2019-05-05T21:34:45.782Z,5.80
2019-05-05T21:37:17.666Z,6.12
2019-05-05T21:39:50.623Z,4.37
2019-05-05T21:42:24.126Z,6.37
2019-05-05T21:44:56.204Z,8.50
2019-05-05T21:47:28.100Z,7.95
2019-05-05T21:50:00.317Z,8.93
2019-05-05T21:52:38.811Z,6.95
2019-05-05T21:55:24.429Z,4.97
2019-05-05T21:58:24.867Z,5.28
2019-05-05T22:01:14.859Z,10.08
2019-05-05T22:03:47.301Z,4.72
2019-05-05T22:06:19.323Z,7.95
2019-05-05T22:08:53.740Z,6.35
2019-05-05T22:11:26.347Z,5.17
2019-05-05T22:13:58.282Z,3.52
2019-05-05T22:16:30.335Z,5.05
2019-05-05T22:19:03.648Z,5.60
2019-05-05T22:21:49.602Z,5.25
2019-05-05T22:24:24.787Z,5.10
2019-05-05T22:26:56.895Z,6.03
2019-05-05T22:29:28.962Z,5.97
2019-05-05T22:32:01.160Z,7.97
2019-05-05T22:34:33.562Z,4.28
2019-05-05T22:37:09.224Z,4.92
2019-05-05T22:39:39.217Z,5.45
2019-05-05T22:42:11.282Z,5.30
2019-05-05T22:44:43.128Z,5.33
2019-05-05T22:47:15.087Z,7.92
2019-05-05T22:49:47.195Z,6.22
2019-05-05T22:52:19.184Z,5.80
2019-05-05T22:54:51.260Z,9.43
2019-05-05T22:57:24.743Z,8.73
2019-05-05T22:59:56.701Z,6.05
2019-05-05T23:02:33.949Z,7.90
2019-05-05T23:05:17.619Z,5.60
2019-05-05T23:07:49.678Z,5.83
2019-05-05T23:10:23.456Z,7.28
2019-05-05T23:12:55.829Z,6.28
2019-05-05T23:15:27.826Z,9.00
2019-05-05T23:18:25.431Z,4.78
2019-05-05T23:21:20.934Z,4.65
2019-05-05T23:24:10.848Z,7.15
2019-05-05T23:26:43.843Z,6.00
2019-05-05T23:29:16.082Z,8.13
2019-05-05T23:31:47.993Z,4.42
2019-05-05T23:34:20.007Z,5.95
2019-05-05T23:36:53.618Z,9.50
2019-05-05T23:39:25.755Z,7.65
2019-05-05T23:41:57.687Z,5.83
2019-05-05T23:44:29.976Z,10.48
2019-05-05T23:47:04.268Z,10.35
2019-05-05T23:49:36.072Z,6.92
2019-05-05T23:52:08.144Z,7.35
2019-05-05T23:54:40.127Z,8.40
2019-05-05T23:57:13.781Z,7.83
2019-05-05T23:59:46.021Z,8.03
